Close

Questo sito utlizza cookie. Può leggere come li usiamo nella nostra Privacy Policy.

Ronchi Tower
Ronchi Tower

From Facebook

METAR & TAF

2021/01/25 00:20 LIPQ 250020Z AUTO 08003KT 040V100 9999 NCD 01/01 Q1001
2021/01/24 18:21 TAF LIPQ 241700Z 2418/2518 VRB05KT 9999 SCT040 TEMPO 2503/2510 10010KT
2021/01/25 00:20 LIPZ 250020Z 25007KT CAVOK 01/M02 Q1000 NOSIG
2021/01/24 18:21 TAF LIPZ 241700Z 2418/2524 VRB06KT 9999 SCT030 TEMPO 2500/2506 4000 BR TEMPO 2505/2513 03010KT TEMPO 2521/2524 4000 BR
2021/01/25 00:20 LIPH 250020Z AUTO VRB03KT 9999 BKN190/// 01/M03 Q1000
2021/01/24 18:21 TAF LIPH 241700Z 2418/2518 VRB05KT 9999 SCT040 TEMPO 2500/2506 4000 BR TEMPO 2509/2514 03010KT
2021/01/25 00:20 LIRF 250020Z 11005KT CAVOK 02/01 Q1006 NOSIG
2021/01/24 18:21 TAF LIRF 241700Z 2418/2524 30014KT 9999 BKN020 BECMG 2420/2422 05008KT BECMG 2506/2508 25018G30KT TEMPO 2506/2512 SHRA BECMG 2511/2513 32015G25KT BECMG 2517/2519 02010KT
2021/01/25 00:20 LIML 250020Z 05002KT CAVOK 01/M02 Q1000 NOSIG
2021/01/24 18:21 TAF LIML 241700Z 2418/2518 31008KT 9999 FEW040 TEMPO 2500/2507 4000 BR
2021/01/25 00:20 EDDM 250020Z AUTO VRB02KT //// R26R/P2000N R26L/P2000N // ///////// M04/M06 Q1000 NOSIG
2021/01/24 18:45 TAF TAF EDDM 241700Z 2418/2524 25010KT 9999 FEW020 BKN040 BECMG 2420/2422 23005KT BECMG 2500/2502 VRB03KT TEMPO 2509/2524 4500 -SN BKN012 BECMG 2509/2511 25005KT PROB30 TEMPO 2513/2519 1200 SHSN BKN004 BKN008TCU
2021/01/25 00:20 EGSS 250020Z AUTO 34007KT 8000 NCD 01/00 Q1000
2021/01/24 22:19 TAF AMD EGSS 242212Z 2422/2524 33008KT 9999 SCT010 TEMPO 2422/2424 1000 SN BKN001 PROB40 TEMPO 2500/2502 3000 -SN BKN003 PROB30 2504/2508 4000 BR BECMG 2508/2511 27010KT PROB30 TEMPO 2508/2514 BKN010
2021/01/25 00:20 EDDF 250020Z VRB02KT 9999 -SN FEW020 M00/M02 Q0999 R25C/0///95 R25L/0///95 R18/0///95 NOSIG
2021/01/24 18:27 TAF TAF EDDF 241700Z 2418/2524 22008KT 9999 SCT030 BECMG 2422/2501 09003KT BKN020 TEMPO 2502/2512 3000 -SN BKN008 PROB30 TEMPO 2512/2517 4500 -SN BKN012 BECMG 2512/2515 28005KT BECMG 2518/2521 22005KT

FlightRadar24

Radar Meteo

Traffic data

Agosto 2018

Passeggeri: 63892-12,9% (rank: 23)
Nazionali 34490 -19,8%
Internazionali 29193 -3,0%

Movimenti: 1307+11,7% (rank: 24)
Tot commerciale 556 -7,2%
Aviazione generale 751 +31,5%

Cargo (tons): 20,6+62,5% (rank: 21)

Gennaio - Agosto 2018

Passeggeri: 507438-3,5% (rank: 23)
Nazionali 322655 -4,9%
Internazionali 182927 -0,7%

Movimenti: 10366-4,25 (rank: 22)
Tot commerciale 5328 -11,0%
Aviazione generale 5038 +4,2%

Cargo (tons): 299,2+61,9% (rank: 20)

Photo

Douglas DC-6B
Douglas DC-6B
Distinct views: 14
Douglas DC-6B
Douglas DC-6B
Distinct views: 77
Douglas DC-6B
Douglas DC-6B
Distinct views: 210
Boeing 737-700
Boeing 737-700
Total views: 1494